createdAt,value
2023-09-17T08:18:33.047Z,7.40
2023-09-17T08:21:00.514Z,6.30
2023-09-17T08:23:27.562Z,7.80
2023-09-17T08:25:55.347Z,7.20
2023-09-17T08:28:24.254Z,7.50
2023-09-17T08:30:51.136Z,6.30
2023-09-17T08:33:18.309Z,6.90
2023-09-17T08:35:45.958Z,6.20
2023-09-17T08:38:12.984Z,5.60
2023-09-17T08:40:40.848Z,5.90
2023-09-17T08:43:07.819Z,6.70
2023-09-17T08:45:34.988Z,5.00
2023-09-17T08:48:01.990Z,6.00
2023-09-17T08:50:30.381Z,5.10
2023-09-17T08:53:00.513Z,4.80
2023-09-17T08:55:27.657Z,6.00
2023-09-17T08:58:12.922Z,5.10
2023-09-17T09:00:39.794Z,5.20
2023-09-17T09:03:07.722Z,5.70
2023-09-17T09:05:36.361Z,4.30
2023-09-17T09:08:05.952Z,5.10
2023-09-17T09:10:32.912Z,5.00
2023-09-17T09:13:01.222Z,4.50
2023-09-17T09:15:28.257Z,5.10
2023-09-17T09:17:57.905Z,4.90
2023-09-17T09:20:25.661Z,7.50
2023-09-17T09:22:52.823Z,5.20
2023-09-17T09:25:20.012Z,5.10
2023-09-17T09:27:46.926Z,4.80
2023-09-17T09:30:17.634Z,5.80
2023-09-17T09:32:44.995Z,4.40
2023-09-17T09:35:12.130Z,6.90
2023-09-17T09:37:39.264Z,5.70
2023-09-17T09:40:07.709Z,5.70
2023-09-17T09:42:34.768Z,5.20
2023-09-17T09:45:03.469Z,5.10
2023-09-17T09:47:31.518Z,5.10
2023-09-17T09:49:58.536Z,5.20
2023-09-17T09:52:25.503Z,4.70
2023-09-17T09:54:52.373Z,4.70
2023-09-17T09:57:20.296Z,4.60
2023-09-17T09:59:48.847Z,5.00
2023-09-17T10:02:17.082Z,4.30
2023-09-17T10:04:45.346Z,4.30
2023-09-17T10:07:12.605Z,4.40
2023-09-17T10:09:39.713Z,5.00
2023-09-17T10:12:07.437Z,4.90
2023-09-17T10:14:39.009Z,4.30
2023-09-17T10:17:09.470Z,4.40
2023-09-17T10:19:36.666Z,4.20
2023-09-17T10:22:08.848Z,5.40
2023-09-17T10:24:37.512Z,5.30
2023-09-17T10:27:05.721Z,4.80
2023-09-17T10:29:33.121Z,4.00
2023-09-17T10:32:00.148Z,4.80
2023-09-17T10:34:27.207Z,4.60
2023-09-17T10:36:54.248Z,6.20
2023-09-17T10:39:21.099Z,4.40
2023-09-17T10:41:49.759Z,4.10
2023-09-17T10:44:17.610Z,4.70
2023-09-17T10:46:46.495Z,5.00
2023-09-17T10:49:13.574Z,5.10
2023-09-17T10:51:41.017Z,5.10
2023-09-17T10:54:07.920Z,5.40
2023-09-17T10:56:35.065Z,4.20
2023-09-17T10:59:02.249Z,4.50
2023-09-17T11:01:32.291Z,4.30
2023-09-17T11:04:02.339Z,3.40
2023-09-17T11:06:30.588Z,4.70
2023-09-17T11:08:57.893Z,4.60
2023-09-17T11:11:26.036Z,4.90
2023-09-17T11:13:53.777Z,4.80
2023-09-17T11:16:28.364Z,9.50
2023-09-17T11:19:09.752Z,5.40
2023-09-17T11:21:38.021Z,5.40
2023-09-17T11:24:10.755Z,4.60
2023-09-17T11:26:39.776Z,5.20
2023-09-17T11:29:07.337Z,4.80
2023-09-17T11:31:58.756Z,5.80
2023-09-17T11:34:25.731Z,16.90
2023-09-17T11:36:53.385Z,7.50
2023-09-17T11:39:22.820Z,4.70
2023-09-17T11:42:04.526Z,5.30
2023-09-17T11:44:36.380Z,5.60
2023-09-17T11:47:04.384Z,8.10
2023-09-17T11:49:32.348Z,5.10
2023-09-17T11:52:00.935Z,7.80
2023-09-17T11:54:35.264Z,6.10
2023-09-17T11:57:02.259Z,6.50
2023-09-17T11:59:29.712Z,6.60
2023-09-17T12:01:58.271Z,7.50
2023-09-17T12:04:30.111Z,7.90
2023-09-17T12:06:57.259Z,5.20
2023-09-17T12:09:50.855Z,6.30
2023-09-17T12:12:20.516Z,6.50
2023-09-17T12:14:48.832Z,5.80
2023-09-17T12:17:17.697Z,5.20
2023-09-17T12:19:46.826Z,5.20
2023-09-17T12:22:14.099Z,8.10
2023-09-17T12:24:50.922Z,5.30
2023-09-17T12:27:30.989Z,27.40
2023-09-17T12:29:58.627Z,6.00
2023-09-17T12:32:27.055Z,4.80
2023-09-17T12:34:55.114Z,8.60
2023-09-17T12:37:22.540Z,7.10
2023-09-17T12:39:50.841Z,5.40
2023-09-17T12:42:18.213Z,6.10
2023-09-17T12:44:45.143Z,5.50
2023-09-17T12:47:12.115Z,5.60
2023-09-17T12:49:39.102Z,5.80
2023-09-17T12:52:06.070Z,7.40
2023-09-17T12:54:33.717Z,5.50
2023-09-17T12:57:00.635Z,6.10
2023-09-17T12:59:34.856Z,5.50
2023-09-17T13:02:04.792Z,4.80
2023-09-17T13:04:38.863Z,4.60
2023-09-17T13:07:07.074Z,4.40
2023-09-17T13:09:34.010Z,5.90
2023-09-17T13:12:02.418Z,7.30
2023-09-17T13:14:31.630Z,8.30
2023-09-17T13:16:58.631Z,5.00
2023-09-17T13:19:25.995Z,4.20
2023-09-17T13:21:52.951Z,5.60
2023-09-17T13:24:20.261Z,4.40
2023-09-17T13:26:47.174Z,9.00
2023-09-17T13:29:14.122Z,6.40
2023-09-17T13:31:41.978Z,7.20
2023-09-17T13:34:09.820Z,6.00
2023-09-17T13:36:37.207Z,7.00
2023-09-17T13:39:04.714Z,5.40
2023-09-17T13:41:31.830Z,5.20
2023-09-17T13:43:59.444Z,6.30
2023-09-17T13:46:28.630Z,6.60
2023-09-17T13:48:56.269Z,6.00
2023-09-17T13:51:23.216Z,6.40
2023-09-17T13:53:50.070Z,6.10
2023-09-17T13:56:17.258Z,6.50
2023-09-17T13:58:44.406Z,5.80
2023-09-17T14:01:13.480Z,6.00
2023-09-17T14:03:40.488Z,7.10
2023-09-17T14:06:07.458Z,6.90
2023-09-17T14:08:35.765Z,7.00
2023-09-17T14:11:04.251Z,6.10
2023-09-17T14:13:31.602Z,6.80
2023-09-17T14:15:58.517Z,7.10
2023-09-17T14:18:25.549Z,5.40
2023-09-17T14:20:52.452Z,6.60
2023-09-17T14:23:19.393Z,6.80
2023-09-17T14:25:46.316Z,10.70
2023-09-17T14:28:13.265Z,8.80
2023-09-17T14:30:40.257Z,11.00
2023-09-17T14:33:07.336Z,6.50
2023-09-17T14:35:35.089Z,7.10
2023-09-17T14:38:02.499Z,7.50
2023-09-17T14:40:29.773Z,6.80
2023-09-17T14:42:56.894Z,5.60
2023-09-17T14:45:23.981Z,7.20
2023-09-17T14:47:51.431Z,7.00
2023-09-17T14:50:18.578Z,7.00
2023-09-17T14:52:45.520Z,6.30
2023-09-17T14:55:13.252Z,6.20
2023-09-17T14:57:41.680Z,7.60
2023-09-17T15:00:10.453Z,8.20
2023-09-17T15:02:37.697Z,9.70
2023-09-17T15:05:05.173Z,9.10
2023-09-17T15:07:32.331Z,8.40
2023-09-17T15:09:59.342Z,10.90
2023-09-17T15:12:28.434Z,8.00
2023-09-17T15:14:55.285Z,9.30
2023-09-17T15:17:24.891Z,10.40
2023-09-17T15:19:51.910Z,8.90
2023-09-17T15:22:18.886Z,8.70
2023-09-17T15:24:46.113Z,8.30
2023-09-17T15:27:13.006Z,8.30
2023-09-17T15:29:39.855Z,9.50
2023-09-17T15:32:07.412Z,7.80
2023-09-17T15:34:36.552Z,8.30
2023-09-17T15:37:04.110Z,9.60
2023-09-17T15:39:30.995Z,8.70
2023-09-17T15:41:58.585Z,7.00
2023-09-17T15:44:25.985Z,12.40
2023-09-17T15:46:53.073Z,12.80
2023-09-17T15:49:19.925Z,18.20
2023-09-17T15:51:46.881Z,10.50
2023-09-17T15:54:14.192Z,10.60
2023-09-17T15:56:42.320Z,13.00
2023-09-17T15:59:10.424Z,16.40
2023-09-17T16:01:39.941Z,14.30
2023-09-17T16:04:06.995Z,14.10
2023-09-17T16:06:34.012Z,15.90
2023-09-17T16:09:01.013Z,17.40
2023-09-17T16:11:27.904Z,16.10
2023-09-17T16:13:55.207Z,20.90
2023-09-17T16:16:22.528Z,19.10
2023-09-17T16:18:49.507Z,42.30
2023-09-17T16:21:16.704Z,17.80
2023-09-17T16:23:43.613Z,13.90
2023-09-17T16:26:10.558Z,14.80
2023-09-17T16:28:37.480Z,33.70
2023-09-17T16:31:04.453Z,15.10
2023-09-17T16:33:31.425Z,10.80
2023-09-17T16:36:00.747Z,10.50
2023-09-17T16:38:27.818Z,12.50
2023-09-17T16:40:55.001Z,21.20
2023-09-17T16:43:22.267Z,11.30
2023-09-17T16:45:49.304Z,14.20
2023-09-17T16:48:16.565Z,18.50
2023-09-17T16:50:43.780Z,17.50
2023-09-17T16:53:10.829Z,14.70
2023-09-17T16:55:39.218Z,15.00
2023-09-17T16:58:06.277Z,17.00
2023-09-17T17:00:33.655Z,19.20
2023-09-17T17:03:00.956Z,15.70
2023-09-17T17:05:28.039Z,16.70
2023-09-17T17:07:55.125Z,26.80
2023-09-17T17:10:22.093Z,20.90
2023-09-17T17:12:49.069Z,16.30
2023-09-17T17:15:16.089Z,13.80
2023-09-17T17:17:43.413Z,19.50
2023-09-17T17:20:10.795Z,17.80
2023-09-17T17:22:48.731Z,17.20
2023-09-17T17:25:19.258Z,24.60
2023-09-17T17:27:47.488Z,21.40
2023-09-17T17:30:14.748Z,27.70
2023-09-17T17:32:43.700Z,20.50
2023-09-17T17:35:11.090Z,19.90
2023-09-17T17:37:39.341Z,19.30
2023-09-17T17:40:06.739Z,21.60
2023-09-17T17:42:33.906Z,18.20
2023-09-17T17:45:00.827Z,23.00
2023-09-17T17:47:28.609Z,16.90
2023-09-17T17:49:57.287Z,17.80
2023-09-17T17:52:24.467Z,20.20
2023-09-17T17:54:51.502Z,16.70
2023-09-17T17:57:21.371Z,19.00
2023-09-17T17:59:48.437Z,17.10
2023-09-17T18:02:15.521Z,20.50
2023-09-17T18:04:42.940Z,19.70
2023-09-17T18:07:11.995Z,19.10
2023-09-17T18:09:39.296Z,19.50
2023-09-17T18:12:06.415Z,18.60
2023-09-17T18:14:33.454Z,21.90
2023-09-17T18:17:00.729Z,21.80
2023-09-17T18:19:27.868Z,20.20
2023-09-17T18:21:55.004Z,27.50
2023-09-17T18:24:24.774Z,20.80
2023-09-17T18:26:52.063Z,19.80
2023-09-17T18:29:23.066Z,20.10
2023-09-17T18:31:50.279Z,19.40
2023-09-17T18:35:08.030Z,35.40
2023-09-17T18:37:35.179Z,20.90
2023-09-17T18:40:02.109Z,64.70
2023-09-17T18:42:30.382Z,29.60
2023-09-17T18:44:57.919Z,24.50
2023-09-17T18:47:24.901Z,20.70
2023-09-17T18:49:53.639Z,27.70
2023-09-17T18:52:20.690Z,20.40
2023-09-17T18:54:47.776Z,23.50
2023-09-17T18:57:16.478Z,19.70
2023-09-17T18:59:45.647Z,18.40
2023-09-17T19:02:12.781Z,20.00
2023-09-17T19:04:40.519Z,20.00
2023-09-17T19:07:08.065Z,20.80
2023-09-17T19:09:35.022Z,20.00
2023-09-17T19:12:06.223Z,17.80
2023-09-17T19:14:41.312Z,18.20
2023-09-17T19:17:09.536Z,20.80
2023-09-17T19:19:36.596Z,28.90
2023-09-17T19:22:10.305Z,27.70
2023-09-17T19:24:37.951Z,26.20
2023-09-17T19:27:05.361Z,18.60
2023-09-17T19:29:32.556Z,19.00
2023-09-17T19:31:59.748Z,22.30
2023-09-17T19:34:27.402Z,22.20
2023-09-17T19:36:54.381Z,24.10
2023-09-17T19:39:21.270Z,37.20
2023-09-17T19:41:48.215Z,24.80
2023-09-17T19:44:15.270Z,25.00
2023-09-17T19:46:42.502Z,28.90
2023-09-17T19:49:35.424Z,41.30
2023-09-17T19:52:02.487Z,24.00
2023-09-17T19:54:29.492Z,21.40
2023-09-17T19:56:56.447Z,21.50
2023-09-17T19:59:23.655Z,20.30
2023-09-17T20:01:50.982Z,18.80
2023-09-17T20:04:17.942Z,18.30
2023-09-17T20:06:54.426Z,17.90
2023-09-17T20:09:22.542Z,15.30
2023-09-17T20:11:49.550Z,20.70
2023-09-17T20:14:16.582Z,17.40
2023-09-17T20:16:43.857Z,16.90
2023-09-17T20:19:11.223Z,18.30
2023-09-17T20:21:39.121Z,17.70
2023-09-17T20:24:07.456Z,18.50
2023-09-17T20:26:37.427Z,15.20
2023-09-17T20:29:05.323Z,18.00
2023-09-17T20:31:32.915Z,13.80
2023-09-17T20:35:50.627Z,14.70
2023-09-17T20:38:18.661Z,14.50
2023-09-17T20:40:46.201Z,19.40
2023-09-17T20:43:13.504Z,18.00
2023-09-17T20:45:40.447Z,16.10
2023-09-17T20:48:07.885Z,16.20
2023-09-17T20:50:35.296Z,13.90
2023-09-17T20:53:02.960Z,15.40
2023-09-17T20:55:30.602Z,15.40
2023-09-17T20:57:57.765Z,14.00
2023-09-17T21:00:25.324Z,14.20
2023-09-17T21:02:54.926Z,14.90
2023-09-17T21:05:23.838Z,14.90
2023-09-17T21:07:51.005Z,15.00
2023-09-17T21:10:18.840Z,14.60
2023-09-17T21:12:45.952Z,13.90
2023-09-17T21:15:13.184Z,13.10
2023-09-17T21:17:43.434Z,16.40
2023-09-17T21:20:19.843Z,13.60
2023-09-17T21:22:48.070Z,18.70
2023-09-17T21:25:17.125Z,22.50
2023-09-17T21:27:45.555Z,14.20
2023-09-17T21:30:13.707Z,13.40
2023-09-17T21:32:42.069Z,14.40
2023-09-17T21:35:11.691Z,12.40
2023-09-17T21:37:39.533Z,12.40
2023-09-17T21:40:07.502Z,15.80
2023-09-17T21:42:36.959Z,25.90
2023-09-17T21:45:05.096Z,19.00
2023-09-17T21:47:32.698Z,15.10
2023-09-17T21:50:01.564Z,13.00
2023-09-17T21:52:30.852Z,15.80
2023-09-17T21:54:58.250Z,15.80
2023-09-17T21:57:26.173Z,19.30
2023-09-17T21:59:53.785Z,13.10
2023-09-17T22:02:21.016Z,12.60
2023-09-17T22:04:49.593Z,11.70
2023-09-17T22:07:19.056Z,10.60
2023-09-17T22:09:46.466Z,11.90
2023-09-17T22:19:52.043Z,28.20
2023-09-17T22:22:20.277Z,12.50
2023-09-17T22:24:47.632Z,12.90
2023-09-17T22:27:16.222Z,11.20
2023-09-17T22:29:44.263Z,11.20
2023-09-17T22:32:11.466Z,12.80
2023-09-17T22:34:39.072Z,12.20
2023-09-17T22:37:06.275Z,11.90
2023-09-17T22:39:33.463Z,14.70
2023-09-17T22:42:00.804Z,15.70
2023-09-17T22:44:28.117Z,13.90
2023-09-17T22:46:55.103Z,12.10
2023-09-17T22:49:24.834Z,11.20
2023-09-17T22:51:51.931Z,12.30
2023-09-17T23:01:19.088Z,11.70
2023-09-17T23:03:46.576Z,12.00
2023-09-17T23:06:14.192Z,11.00
2023-09-17T23:08:42.939Z,11.20
2023-09-17T23:11:10.620Z,11.00
2023-09-17T23:13:38.459Z,11.40
2023-09-17T23:16:05.972Z,11.90
2023-09-17T23:18:34.119Z,12.00
2023-09-17T23:21:05.183Z,11.80
2023-09-17T23:23:32.963Z,11.00
2023-09-17T23:26:02.962Z,9.80
2023-09-17T23:28:34.692Z,11.80
2023-09-17T23:31:11.582Z,9.90
2023-09-17T23:33:40.955Z,11.10
2023-09-17T23:36:08.519Z,10.60
2023-09-17T23:38:36.179Z,16.70
2023-09-17T23:41:04.493Z,10.60
2023-09-17T23:43:31.623Z,12.10
2023-09-17T23:45:58.768Z,9.60
